createdAt,value
2022-12-04T00:07:44.409Z,36
2022-12-04T00:08:53.179Z,31
2022-12-04T00:10:02.245Z,38
2022-12-04T00:14:20.094Z,39
2022-12-04T00:15:44.015Z,29
2022-12-04T00:16:54.209Z,34
2022-12-04T00:21:10.422Z,33
2022-12-04T00:22:40.914Z,29
2022-12-04T00:27:10.946Z,32
2022-12-04T00:28:19.819Z,28
2022-12-04T00:29:28.286Z,30
2022-12-04T00:30:35.866Z,27
2022-12-04T00:31:46.357Z,25
2022-12-04T00:32:54.270Z,30
2022-12-04T00:34:08.157Z,31
2022-12-04T00:35:14.642Z,30
2022-12-04T00:36:23.310Z,35
2022-12-04T00:37:30.594Z,33
2022-12-04T00:38:38.382Z,34
2022-12-04T00:39:46.801Z,37
2022-12-04T00:40:54.603Z,32
2022-12-04T00:42:02.897Z,33
2022-12-04T00:43:11.078Z,28
2022-12-04T00:44:20.161Z,30
2022-12-04T00:45:29.183Z,35
2022-12-04T00:46:38.939Z,38
2022-12-04T00:47:47.799Z,37
2022-12-04T00:48:55.807Z,28
2022-12-04T00:50:04.836Z,31
2022-12-04T00:51:12.949Z,25
2022-12-04T00:52:20.595Z,25
2022-12-04T00:53:30.519Z,28
2022-12-04T00:54:38.826Z,33
2022-12-04T00:55:49.159Z,25
2022-12-04T00:56:56.656Z,41
2022-12-04T00:58:05.646Z,32
2022-12-04T00:59:12.982Z,35
2022-12-04T01:00:21.380Z,26
2022-12-04T01:01:29.940Z,33
2022-12-04T01:02:39.501Z,35
2022-12-04T01:03:47.075Z,30
2022-12-04T01:04:56.122Z,36
2022-12-04T01:06:04.646Z,30
2022-12-04T01:07:13.350Z,32
2022-12-04T01:08:22.573Z,32
2022-12-04T01:09:31.597Z,31
2022-12-04T01:10:43.927Z,25
2022-12-04T01:11:55.758Z,29
2022-12-04T01:13:04.606Z,27
2022-12-04T01:14:11.735Z,34
2022-12-04T01:15:19.686Z,26
2022-12-04T01:16:28.371Z,25
2022-12-04T01:17:36.870Z,31
2022-12-04T01:18:44.974Z,28
2022-12-04T01:19:53.498Z,30
2022-12-04T01:21:02.402Z,28
2022-12-04T01:22:10.915Z,35
2022-12-04T01:23:19.634Z,31
2022-12-04T01:24:38.827Z,28
2022-12-04T01:25:47.811Z,36
2022-12-04T01:26:59.262Z,26
2022-12-04T01:28:06.690Z,32
2022-12-04T01:29:14.496Z,25
2022-12-04T01:30:22.149Z,38
2022-12-04T01:31:30.573Z,34
2022-12-04T01:32:38.813Z,31
2022-12-04T01:33:46.169Z,29
2022-12-04T01:34:55.010Z,28
2022-12-04T01:36:03.380Z,34
2022-12-04T01:37:12.929Z,28
2022-12-04T01:38:20.590Z,34
2022-12-04T01:39:28.298Z,27
2022-12-04T01:40:36.003Z,34
2022-12-04T01:41:45.187Z,28
2022-12-04T01:42:54.579Z,25
2022-12-04T01:44:27.386Z,27
2022-12-04T01:45:35.568Z,32
2022-12-04T01:46:48.986Z,33
2022-12-04T01:47:56.821Z,32
2022-12-04T01:49:04.738Z,30
2022-12-04T01:50:12.439Z,36
2022-12-04T01:51:21.155Z,35
2022-12-04T01:52:32.450Z,36
2022-12-04T01:53:41.469Z,34
2022-12-04T01:55:10.353Z,31
2022-12-04T01:56:19.899Z,35
2022-12-04T01:57:27.602Z,40
2022-12-04T01:58:35.763Z,41
2022-12-04T01:59:47.966Z,39
2022-12-04T02:01:02.536Z,42
2022-12-04T02:02:11.220Z,34
2022-12-04T02:03:20.221Z,42
2022-12-04T02:04:30.106Z,40
2022-12-04T02:05:38.463Z,36
2022-12-04T02:06:47.646Z,45
2022-12-04T02:07:57.381Z,51
2022-12-04T02:09:30.930Z,37
2022-12-04T02:10:39.813Z,34
2022-12-04T02:11:49.913Z,46
2022-12-04T02:13:04.468Z,44
2022-12-04T02:14:51.646Z,49
2022-12-04T02:16:06.765Z,52
2022-12-04T02:18:06.417Z,57
2022-12-04T02:19:20.113Z,53
2022-12-04T02:20:33.337Z,57
2022-12-04T02:21:51.726Z,53
2022-12-04T02:22:59.233Z,53
2022-12-04T02:24:17.610Z,60
2022-12-04T02:25:29.882Z,54
2022-12-04T02:26:40.633Z,60
2022-12-04T02:29:56.051Z,61
2022-12-04T02:31:08.367Z,58
2022-12-04T02:32:17.637Z,59
2022-12-04T02:33:36.694Z,58
2022-12-04T02:34:43.625Z,58
2022-12-04T02:35:56.329Z,64
2022-12-04T02:37:10.259Z,64
2022-12-04T02:38:20.638Z,67
2022-12-04T02:39:28.085Z,68
2022-12-04T02:40:37.917Z,73
2022-12-04T02:41:53.117Z,73
2022-12-04T02:43:03.521Z,74
2022-12-04T02:44:19.852Z,68
2022-12-04T02:45:30.518Z,63
2022-12-04T02:46:37.897Z,71
2022-12-04T02:47:49.137Z,69
2022-12-04T02:49:01.605Z,78
2022-12-04T02:50:13.533Z,72
2022-12-04T02:51:33.001Z,74
2022-12-04T02:53:03.254Z,77
2022-12-04T02:54:46.454Z,73
2022-12-04T02:56:05.621Z,82
2022-12-04T02:57:24.453Z,79
2022-12-04T02:58:35.457Z,77
2022-12-04T02:59:59.487Z,81
2022-12-04T03:01:11.206Z,72
2022-12-04T03:02:30.835Z,78
2022-12-04T03:03:47.489Z,81
2022-12-04T03:05:09.612Z,81
2022-12-04T03:06:22.423Z,87
2022-12-04T03:07:31.462Z,81
2022-12-04T03:09:16.656Z,84
2022-12-04T03:10:59.585Z,76
2022-12-04T03:12:20.207Z,85
2022-12-04T03:13:46.545Z,86
2022-12-04T03:15:15.881Z,81
2022-12-04T03:16:34.863Z,94
2022-12-04T03:18:12.101Z,91
2022-12-04T03:19:36.905Z,86
2022-12-04T03:20:59.939Z,93
2022-12-04T03:22:16.794Z,99
2022-12-04T03:23:43.811Z,98
2022-12-04T03:24:58.221Z,94
2022-12-04T03:26:29.146Z,96
2022-12-04T03:27:48.378Z,99
2022-12-04T03:29:10.825Z,98
2022-12-04T03:30:39.181Z,100
2022-12-04T03:32:18.431Z,94
2022-12-04T03:33:37.284Z,95
2022-12-04T03:34:46.725Z,92
2022-12-04T03:36:02.969Z,94
2022-12-04T03:37:15.337Z,95
2022-12-04T03:38:24.241Z,97
2022-12-04T03:39:40.269Z,93
2022-12-04T03:40:54.217Z,101
2022-12-04T03:42:02.734Z,104
2022-12-04T03:43:13.688Z,107
2022-12-04T03:44:23.233Z,103
2022-12-04T03:45:34.222Z,103
2022-12-04T03:46:49.161Z,102
2022-12-04T03:47:59.056Z,98
2022-12-04T03:49:13.934Z,102
2022-12-04T03:50:31.920Z,107
2022-12-04T03:51:39.478Z,102
2022-12-04T03:52:52.392Z,100
2022-12-04T03:54:10.130Z,107
2022-12-04T03:55:19.025Z,98
2022-12-04T03:56:32.336Z,96
2022-12-04T03:57:45.757Z,103
2022-12-04T03:58:53.842Z,98
2022-12-04T04:00:02.521Z,103
2022-12-04T04:01:10.441Z,105
2022-12-04T04:02:17.950Z,107
2022-12-04T04:03:26.253Z,106
2022-12-04T04:04:35.985Z,105
2022-12-04T04:05:43.118Z,106
2022-12-04T04:06:50.408Z,103
2022-12-04T04:08:03.374Z,114
2022-12-04T04:09:18.156Z,106
2022-12-04T04:10:26.677Z,108
2022-12-04T04:12:04.364Z,106
2022-12-04T04:13:15.984Z,106
2022-12-04T04:14:30.755Z,105
2022-12-04T04:15:49.591Z,107
2022-12-04T04:17:03.189Z,102
2022-12-04T04:18:16.644Z,102
2022-12-04T04:19:29.464Z,103
2022-12-04T04:20:44.236Z,104
2022-12-04T04:21:59.822Z,100
2022-12-04T04:23:13.953Z,98
2022-12-04T04:24:27.945Z,100
2022-12-04T04:25:43.078Z,102
2022-12-04T04:26:50.354Z,101
2022-12-04T04:27:59.797Z,95
2022-12-04T04:29:07.238Z,104
2022-12-04T04:30:16.493Z,99
2022-12-04T04:34:51.884Z,100
2022-12-04T04:36:07.098Z,92
2022-12-04T04:37:23.612Z,96
2022-12-04T04:38:42.568Z,98
2022-12-04T04:39:50.317Z,93
2022-12-04T04:41:07.016Z,93
2022-12-04T04:42:14.778Z,96
2022-12-04T04:43:24.272Z,94
2022-12-04T04:44:37.189Z,93
2022-12-04T04:45:49.752Z,98
2022-12-04T04:47:03.589Z,90
2022-12-04T04:48:12.581Z,87
2022-12-04T04:49:26.796Z,89
2022-12-04T04:50:39.053Z,85
2022-12-04T04:51:46.636Z,89
2022-12-04T04:52:54.869Z,88
2022-12-04T04:54:02.989Z,87
2022-12-04T04:55:12.436Z,89
2022-12-04T04:56:22.308Z,91
2022-12-04T04:57:30.591Z,85
2022-12-04T04:58:41.616Z,96
2022-12-04T04:59:49.580Z,86
2022-12-04T05:00:58.147Z,84
2022-12-04T05:02:07.001Z,92
2022-12-04T05:03:14.495Z,97
2022-12-04T05:04:23.956Z,93
2022-12-04T05:05:31.952Z,92
2022-12-04T05:06:41.932Z,95
2022-12-04T05:07:49.356Z,89
2022-12-04T05:08:57.540Z,89
2022-12-04T05:10:05.652Z,93
2022-12-04T05:11:14.044Z,87
2022-12-04T05:12:23.325Z,94
2022-12-04T05:13:33.102Z,85
2022-12-04T05:15:27.437Z,94
2022-12-04T05:16:35.081Z,88
2022-12-04T05:17:44.060Z,90
2022-12-04T05:18:59.569Z,92
2022-12-04T05:20:13.197Z,92
2022-12-04T05:21:21.772Z,90
2022-12-04T05:22:30.705Z,88
2022-12-04T05:23:39.744Z,90
2022-12-04T05:24:49.108Z,90
2022-12-04T05:25:58.661Z,88
2022-12-04T05:27:08.526Z,96
2022-12-04T05:28:16.964Z,94
2022-12-04T05:30:42.580Z,93
2022-12-04T05:31:53.777Z,84
2022-12-04T05:33:02.041Z,87
2022-12-04T05:34:10.163Z,87
2022-12-04T05:35:18.297Z,89
2022-12-04T05:36:27.533Z,88
2022-12-04T05:37:35.333Z,87
2022-12-04T05:38:44.325Z,88
2022-12-04T05:39:54.533Z,92
2022-12-04T05:41:01.353Z,81
2022-12-04T05:42:10.483Z,93
2022-12-04T05:43:17.704Z,84
2022-12-04T05:44:26.691Z,88
2022-12-04T05:45:36.736Z,88
2022-12-04T05:47:27.930Z,86
2022-12-04T05:48:36.284Z,88
2022-12-04T05:49:43.833Z,89
2022-12-04T05:50:51.776Z,90
2022-12-04T05:52:00.120Z,92
2022-12-04T05:53:07.996Z,86
2022-12-04T05:54:16.392Z,84
2022-12-04T05:55:24.088Z,93
2022-12-04T05:56:32.130Z,86
2022-12-04T05:57:40.093Z,83
2022-12-04T05:58:49.225Z,89
2022-12-04T06:00:06.597Z,87
2022-12-04T06:01:13.633Z,93
2022-12-04T06:02:36.343Z,82
2022-12-04T06:03:44.756Z,91
2022-12-04T06:04:52.549Z,90
2022-12-04T06:06:02.144Z,85
2022-12-04T06:07:10.877Z,90
2022-12-04T06:08:20.435Z,82
2022-12-04T06:09:43.532Z,80
2022-12-04T06:10:51.369Z,82
2022-12-04T06:11:59.055Z,81
2022-12-04T06:13:07.769Z,81
2022-12-04T06:14:18.813Z,84
2022-12-04T06:15:29.443Z,83
2022-12-04T06:16:37.731Z,85
2022-12-04T06:17:45.828Z,85
2022-12-04T06:18:55.182Z,80
2022-12-04T06:20:11.052Z,88
2022-12-04T06:21:14.969Z,84
2022-12-04T06:22:23.645Z,87
2022-12-04T06:23:31.068Z,89
2022-12-04T06:24:40.221Z,87
2022-12-04T06:25:47.588Z,89
2022-12-04T06:28:05.241Z,89
2022-12-04T06:29:14.629Z,85
2022-12-04T06:30:22.393Z,87
2022-12-04T06:31:30.419Z,83
2022-12-04T06:32:38.638Z,81
2022-12-04T06:33:46.480Z,82
2022-12-04T06:34:55.927Z,82
2022-12-04T06:36:03.960Z,87
2022-12-04T06:37:12.640Z,78
2022-12-04T06:38:20.612Z,81
2022-12-04T06:39:29.413Z,75
2022-12-04T06:40:38.020Z,78
2022-12-04T06:41:46.457Z,83
2022-12-04T06:42:54.108Z,84
2022-12-04T06:44:02.189Z,83
2022-12-04T06:45:12.844Z,80
2022-12-04T06:46:21.316Z,77
2022-12-04T06:47:31.143Z,69
2022-12-04T06:48:38.856Z,73
2022-12-04T06:50:02.805Z,80
2022-12-04T06:51:11.868Z,80
2022-12-04T06:52:19.400Z,79
2022-12-04T06:53:29.725Z,83
2022-12-04T06:54:38.264Z,86
2022-12-04T06:55:47.137Z,87
2022-12-04T06:58:16.332Z,87
2022-12-04T06:59:25.595Z,77
2022-12-04T07:00:40.985Z,75
2022-12-04T07:05:01.285Z,73
2022-12-04T07:07:16.528Z,82
2022-12-04T07:08:25.224Z,86
2022-12-04T07:10:34.906Z,86
2022-12-04T07:11:42.928Z,82
2022-12-04T07:16:12.134Z,78
2022-12-04T07:20:42.290Z,74
2022-12-04T07:22:04.761Z,82
2022-12-04T07:23:43.261Z,80
2022-12-04T07:24:48.544Z,73
2022-12-04T07:25:56.888Z,72
2022-12-04T07:27:10.232Z,78
2022-12-04T07:28:19.181Z,79
2022-12-04T07:29:32.349Z,77
2022-12-04T07:30:39.704Z,73
2022-12-04T07:32:02.022Z,81
2022-12-04T07:33:11.661Z,75
2022-12-04T07:34:19.304Z,80
2022-12-04T07:35:27.291Z,66
2022-12-04T07:37:01.344Z,70
2022-12-04T07:38:14.792Z,68
2022-12-04T07:39:39.957Z,68
2022-12-04T07:41:01.942Z,68
2022-12-04T07:42:12.961Z,70
2022-12-04T07:43:21.842Z,73
2022-12-04T07:44:31.795Z,70
2022-12-04T07:45:48.945Z,65
2022-12-04T07:46:58.569Z,74
2022-12-04T07:48:08.876Z,66
2022-12-04T07:49:17.581Z,68
2022-12-04T07:50:28.264Z,69
2022-12-04T07:51:36.213Z,68
2022-12-04T07:52:53.640Z,74
2022-12-04T07:54:10.292Z,71
2022-12-04T07:55:23.584Z,71
2022-12-04T07:58:23.240Z,66
2022-12-04T08:03:08.027Z,79
2022-12-04T08:07:36.911Z,63
2022-12-04T08:15:36.656Z,66
2022-12-04T08:20:10.156Z,59
2022-12-04T08:22:09.073Z,67
2022-12-04T08:24:36.109Z,67
2022-12-04T08:29:10.629Z,67
2022-12-04T08:30:19.549Z,71
2022-12-04T08:35:58.918Z,71
2022-12-04T08:38:44.901Z,71
2022-12-04T08:43:10.745Z,71
2022-12-04T08:48:28.528Z,71
2022-12-04T08:53:01.420Z,76
2022-12-04T09:25:21.861Z,76
2022-12-04T09:29:56.248Z,65
2022-12-04T09:31:59.668Z,65
2022-12-04T09:36:37.021Z,73
2022-12-04T10:04:17.687Z,72
2022-12-04T10:06:17.047Z,69
2022-12-04T10:26:19.109Z,64
2022-12-04T10:30:52.999Z,67
2022-12-04T10:38:48.560Z,56
2022-12-04T10:40:06.487Z,54
2022-12-04T10:46:04.177Z,54
2022-12-04T10:50:37.877Z,43
2022-12-04T10:52:44.865Z,43
2022-12-04T10:57:20.637Z,53
2022-12-04T11:00:38.449Z,57
2022-12-04T11:01:47.791Z,56
2022-12-04T11:02:58.059Z,62
2022-12-04T11:04:26.678Z,53
2022-12-04T11:05:42.192Z,50
2022-12-04T11:07:27.648Z,50
2022-12-04T11:08:48.601Z,51
2022-12-04T11:13:15.813Z,51
2022-12-04T11:18:01.297Z,45
2022-12-04T11:19:14.950Z,51
2022-12-04T11:25:54.203Z,58
2022-12-04T11:26:06.087Z,58
2022-12-04T11:30:37.172Z,50
2022-12-04T11:32:09.027Z,45
2022-12-04T11:36:48.844Z,52
2022-12-04T11:37:58.106Z,51
2022-12-04T11:44:03.568Z,51
2022-12-04T11:48:37.784Z,52
2022-12-04T11:53:14.016Z,46
2022-12-04T11:54:36.613Z,51
2022-12-04T11:56:01.483Z,48
2022-12-04T11:57:08.963Z,52
2022-12-04T11:58:29.177Z,55
2022-12-04T11:59:46.244Z,49
2022-12-04T12:01:03.024Z,46
2022-12-04T12:02:21.699Z,42
2022-12-04T12:04:00.864Z,51
2022-12-04T12:05:16.324Z,51
2022-12-04T12:06:56.516Z,53
2022-12-04T12:08:13.700Z,49
2022-12-04T12:09:23.216Z,46
2022-12-04T12:13:39.523Z,44
2022-12-04T12:14:54.656Z,44
2022-12-04T12:16:19.189Z,40
2022-12-04T12:19:48.556Z,43
2022-12-04T12:25:54.384Z,49
2022-12-04T12:30:29.843Z,48
2022-12-04T12:31:51.682Z,48
2022-12-04T12:33:06.007Z,51
2022-12-04T12:36:21.163Z,51
2022-12-04T12:40:59.170Z,51
2022-12-04T12:42:11.700Z,54
2022-12-04T12:43:23.262Z,62
2022-12-04T12:48:29.774Z,56
2022-12-04T12:56:15.539Z,56
2022-12-04T12:58:33.024Z,56
2022-12-04T13:03:15.601Z,56
2022-12-04T13:35:02.674Z,56
2022-12-04T13:39:37.753Z,54
2022-12-04T13:49:17.938Z,64
2022-12-04T13:53:46.132Z,53
2022-12-04T13:58:32.128Z,56
2022-12-04T14:03:04.922Z,50
2022-12-04T14:04:31.617Z,51
2022-12-04T14:09:19.370Z,58
2022-12-04T14:10:27.467Z,52
2022-12-04T14:18:20.262Z,54
2022-12-04T14:29:28.696Z,63
2022-12-04T15:01:47.409Z,71
2022-12-04T15:06:22.855Z,73
2022-12-04T16:12:34.478Z,95
2022-12-04T16:17:06.112Z,93
2022-12-04T18:33:28.740Z,93
2022-12-04T18:34:36.332Z,88
2022-12-04T18:35:44.173Z,92
2022-12-04T18:37:10.144Z,95
2022-12-04T18:38:18.941Z,96
2022-12-04T18:41:31.908Z,96
2022-12-04T18:42:39.258Z,89
2022-12-04T18:43:47.156Z,92
2022-12-04T18:44:55.688Z,100
2022-12-04T18:46:07.246Z,95
2022-12-04T18:47:10.204Z,89
2022-12-04T18:48:23.504Z,87
2022-12-04T18:49:30.662Z,91
2022-12-04T18:50:37.881Z,85
2022-12-04T18:52:18.393Z,88
2022-12-04T18:53:27.600Z,83
2022-12-04T18:54:35.241Z,87
2022-12-04T18:58:35.432Z,86
2022-12-04T18:59:42.681Z,82
2022-12-04T19:03:44.335Z,77
2022-12-04T19:04:52.638Z,80
2022-12-04T19:06:00.009Z,78
2022-12-04T19:07:08.756Z,79
2022-12-04T19:08:16.271Z,76
2022-12-04T19:12:14.597Z,76
2022-12-04T19:13:22.327Z,78
2022-12-04T19:17:23.480Z,81
2022-12-04T19:18:30.865Z,81
2022-12-04T19:19:38.204Z,84
2022-12-04T19:20:45.908Z,87
2022-12-04T19:21:53.769Z,90
2022-12-04T19:23:02.361Z,80
2022-12-04T19:24:09.841Z,81
2022-12-04T19:25:17.074Z,83
2022-12-04T19:26:24.244Z,79
2022-12-04T19:27:32.901Z,81
2022-12-04T19:28:40.996Z,78
2022-12-04T19:29:49.683Z,84
2022-12-04T19:30:56.940Z,83
2022-12-04T19:32:04.685Z,84
2022-12-04T19:33:11.788Z,77
2022-12-04T19:34:19.957Z,81
2022-12-04T19:35:28.705Z,84
2022-12-04T19:37:38.255Z,79
2022-12-04T19:38:41.398Z,77
2022-12-04T19:39:48.337Z,82
2022-12-04T19:43:49.134Z,78
2022-12-04T19:45:28.921Z,84
2022-12-04T19:46:38.625Z,84
2022-12-04T19:50:57.257Z,76
2022-12-04T19:52:10.212Z,75
2022-12-04T19:56:00.136Z,76
2022-12-04T19:57:07.355Z,77
2022-12-04T19:58:15.375Z,79
2022-12-04T19:59:23.025Z,81
2022-12-04T20:00:58.072Z,71
2022-12-04T20:02:05.877Z,75
2022-12-04T20:06:14.907Z,73
2022-12-04T20:10:56.468Z,68
2022-12-04T20:12:06.472Z,71
2022-12-04T20:16:39.623Z,65
2022-12-04T20:19:10.959Z,65
2022-12-04T20:20:19.775Z,73
2022-12-04T20:28:22.291Z,61
2022-12-04T20:32:57.875Z,69
2022-12-04T20:37:24.928Z,61
2022-12-04T20:38:34.509Z,64
2022-12-04T20:42:56.379Z,60
2022-12-04T20:46:26.966Z,58
2022-12-04T20:46:48.688Z,58
2022-12-04T20:47:57.103Z,58
2022-12-04T20:52:29.039Z,55
2022-12-04T20:54:23.219Z,54
2022-12-04T20:55:30.803Z,63
2022-12-04T20:59:59.000Z,58
2022-12-04T21:01:06.389Z,50
2022-12-04T21:02:22.985Z,47
2022-12-04T21:03:31.112Z,53
2022-12-04T21:07:54.863Z,50
2022-12-04T21:12:05.611Z,55
2022-12-04T21:14:15.196Z,55
2022-12-04T21:15:30.569Z,55
2022-12-04T21:17:11.061Z,46
2022-12-04T21:18:18.324Z,51
2022-12-04T21:20:45.243Z,51
2022-12-04T21:21:53.169Z,40
2022-12-04T21:23:00.543Z,35
2022-12-04T21:24:07.504Z,41
2022-12-04T21:25:15.227Z,41
2022-12-04T21:26:22.689Z,45
2022-12-04T21:27:31.404Z,36
2022-12-04T21:28:57.819Z,44
2022-12-04T21:30:06.127Z,44
2022-12-04T21:31:14.522Z,41
2022-12-04T21:35:44.067Z,49
2022-12-04T21:38:05.678Z,49
2022-12-04T21:39:13.447Z,39
2022-12-04T21:43:41.252Z,43
2022-12-04T21:47:43.295Z,43
2022-12-04T21:48:50.268Z,38
2022-12-04T21:49:59.394Z,37
2022-12-04T21:54:31.860Z,28
2022-12-04T21:59:06.971Z,35
2022-12-04T22:00:14.425Z,32
2022-12-04T22:01:21.888Z,31
2022-12-04T22:05:53.119Z,27
2022-12-04T22:10:11.182Z,31
2022-12-04T22:12:47.649Z,31
2022-12-04T22:13:26.864Z,40
2022-12-04T22:14:35.903Z,38
2022-12-04T22:15:44.492Z,36
2022-12-04T22:20:14.043Z,37
2022-12-04T22:21:22.415Z,34
2022-12-04T22:22:45.674Z,34
2022-12-04T22:25:32.854Z,34
2022-12-04T22:26:40.076Z,35
2022-12-04T22:27:47.805Z,33
2022-12-04T22:28:55.327Z,30
2022-12-04T22:30:04.560Z,29
2022-12-04T22:31:13.446Z,27
2022-12-04T22:35:49.239Z,40
2022-12-04T22:36:56.398Z,30
2022-12-04T22:38:29.906Z,29
2022-12-04T22:39:37.570Z,27
2022-12-04T22:41:36.292Z,32
2022-12-04T22:42:43.402Z,31
2022-12-04T22:43:50.625Z,30
2022-12-04T22:44:57.802Z,31
2022-12-04T22:49:03.365Z,31
2022-12-04T22:50:11.362Z,27
2022-12-04T22:51:18.460Z,36
2022-12-04T22:53:18.143Z,40
2022-12-04T22:54:25.306Z,35
2022-12-04T22:58:33.446Z,35
2022-12-04T22:59:40.600Z,40
2022-12-04T23:00:47.843Z,38
2022-12-04T23:01:55.141Z,36
2022-12-04T23:03:03.520Z,37
2022-12-04T23:04:11.714Z,25
2022-12-04T23:08:21.308Z,31
2022-12-04T23:09:28.703Z,36
2022-12-04T23:13:29.024Z,32
2022-12-04T23:14:37.760Z,35
2022-12-04T23:17:44.168Z,35
2022-12-04T23:18:51.687Z,32
2022-12-04T23:20:00.515Z,41
2022-12-04T23:21:08.828Z,37
2022-12-04T23:22:16.256Z,38
2022-12-04T23:23:24.535Z,34
2022-12-04T23:24:32.007Z,35
2022-12-04T23:25:39.120Z,37
2022-12-04T23:26:47.035Z,36
2022-12-04T23:27:53.876Z,32
2022-12-04T23:29:01.103Z,41
2022-12-04T23:30:09.312Z,35
2022-12-04T23:34:40.198Z,33
2022-12-04T23:36:02.378Z,31
2022-12-04T23:37:12.190Z,34
2022-12-04T23:39:44.428Z,34
2022-12-04T23:40:51.580Z,36
2022-12-04T23:42:05.213Z,35
2022-12-04T23:43:13.360Z,36
2022-12-04T23:44:20.736Z,40
2022-12-04T23:45:28.080Z,42
2022-12-04T23:46:36.047Z,39
2022-12-04T23:47:43.601Z,49
2022-12-04T23:52:11.357Z,44
2022-12-04T23:54:39.144Z,44
2022-12-04T23:55:46.725Z,41
2022-12-04T23:59:59.296Z,46
